createdAt,value
2023-01-03T00:00:16.149Z,384
2023-01-03T00:01:15.181Z,377
2023-01-03T00:02:15.621Z,361
2023-01-03T00:03:15.551Z,365
2023-01-03T00:04:16.001Z,367
2023-01-03T00:05:15.990Z,371
2023-01-03T00:06:15.162Z,374
2023-01-03T00:07:15.787Z,373
2023-01-03T00:08:15.018Z,387
2023-01-03T00:09:15.372Z,380
2023-01-03T00:10:15.731Z,370
2023-01-03T00:11:15.196Z,386
2023-01-03T00:12:15.737Z,395
2023-01-03T00:13:15.666Z,402
2023-01-03T00:14:15.823Z,389
2023-01-03T00:15:15.223Z,382
2023-01-03T00:16:15.474Z,378
2023-01-03T00:17:16.296Z,372
2023-01-03T00:19:15.911Z,373
2023-01-03T00:20:14.962Z,376
2023-01-03T00:21:15.641Z,383
2023-01-03T00:22:15.685Z,376
2023-01-03T00:23:15.004Z,372
2023-01-03T00:24:15.178Z,377
2023-01-03T00:25:15.523Z,381
2023-01-03T00:26:15.940Z,367
2023-01-03T00:29:15.212Z,373
2023-01-03T00:30:15.747Z,376
2023-01-03T00:31:15.586Z,365
2023-01-03T00:32:15.379Z,371
2023-01-03T00:33:15.627Z,366
2023-01-03T00:34:15.604Z,371
2023-01-03T00:35:15.640Z,377
2023-01-03T00:36:15.122Z,376
2023-01-03T00:37:15.547Z,372
2023-01-03T00:38:15.526Z,362
2023-01-03T00:39:15.889Z,365
2023-01-03T00:40:15.458Z,366
2023-01-03T00:41:15.311Z,368
2023-01-03T00:42:16.103Z,370
2023-01-03T00:43:15.559Z,376
2023-01-03T00:44:15.906Z,374
2023-01-03T00:45:19.755Z,371
2023-01-03T00:47:15.436Z,372
2023-01-03T00:49:15.170Z,364
2023-01-03T00:52:15.228Z,368
2023-01-03T00:53:15.740Z,367
2023-01-03T00:54:15.601Z,370
2023-01-03T00:55:15.235Z,366
2023-01-03T00:56:15.487Z,364
2023-01-03T00:57:15.871Z,372
2023-01-03T00:58:15.240Z,375
2023-01-03T00:59:15.361Z,365
2023-01-03T01:00:30.219Z,364
2023-01-03T01:01:17.608Z,369
2023-01-03T01:03:15.557Z,366
2023-01-03T01:04:15.392Z,372
2023-01-03T01:05:16.118Z,369
2023-01-03T01:06:15.674Z,370
2023-01-03T01:07:15.613Z,372
2023-01-03T01:08:29.310Z,375
2023-01-03T01:09:15.861Z,382
2023-01-03T01:10:29.826Z,378
2023-01-03T01:11:15.765Z,379
2023-01-03T01:12:15.497Z,385
2023-01-03T01:13:15.829Z,386
2023-01-03T01:14:34.402Z,381
2023-01-03T01:15:16.103Z,376
2023-01-03T01:16:15.982Z,366
2023-01-03T01:17:22.236Z,368
2023-01-03T01:18:14.752Z,382
2023-01-03T01:19:15.616Z,378
2023-01-03T01:20:15.943Z,380
2023-01-03T01:21:15.256Z,382
2023-01-03T01:22:15.935Z,367
2023-01-03T01:24:18.038Z,378
2023-01-03T01:25:15.710Z,381
2023-01-03T01:26:14.974Z,373
2023-01-03T01:28:15.390Z,374
2023-01-03T01:29:14.907Z,368
2023-01-03T01:30:15.749Z,373
2023-01-03T01:31:15.418Z,381
2023-01-03T01:32:15.226Z,377
2023-01-03T01:33:15.445Z,369
2023-01-03T01:34:15.217Z,366
2023-01-03T01:35:15.671Z,364
2023-01-03T01:36:16.023Z,363
2023-01-03T01:37:15.843Z,360
2023-01-03T01:38:15.408Z,378
2023-01-03T01:39:15.695Z,375
2023-01-03T01:40:15.977Z,364
2023-01-03T01:41:15.520Z,358
2023-01-03T01:42:19.768Z,370
2023-01-03T01:43:15.559Z,369
2023-01-03T01:44:15.149Z,371
2023-01-03T01:45:15.998Z,374
2023-01-03T01:46:15.849Z,373
2023-01-03T01:47:15.519Z,364
2023-01-03T01:48:15.772Z,351
2023-01-03T01:49:15.640Z,344
2023-01-03T01:50:15.964Z,353
2023-01-03T01:51:15.369Z,362
2023-01-03T01:52:15.803Z,369
2023-01-03T01:53:15.463Z,365
2023-01-03T01:54:15.851Z,355
2023-01-03T01:55:15.194Z,357
2023-01-03T01:56:15.472Z,368
2023-01-03T01:57:14.996Z,372
2023-01-03T01:59:15.215Z,373
2023-01-03T02:00:16.429Z,374
2023-01-03T02:01:15.962Z,362
2023-01-03T02:02:15.637Z,369
2023-01-03T02:03:15.980Z,370
2023-01-03T02:04:15.870Z,368
2023-01-03T02:05:15.134Z,360
2023-01-03T02:06:14.864Z,357
2023-01-03T02:07:15.934Z,363
2023-01-03T02:08:15.244Z,365
2023-01-03T02:09:15.943Z,373
2023-01-03T02:10:15.210Z,368
2023-01-03T02:11:15.512Z,371
2023-01-03T02:12:15.798Z,368
2023-01-03T02:13:15.067Z,354
2023-01-03T02:14:15.998Z,355
2023-01-03T02:15:16.146Z,362
2023-01-03T02:16:15.093Z,352
2023-01-03T02:17:15.358Z,361
2023-01-03T02:18:15.113Z,373
2023-01-03T02:19:14.898Z,371
2023-01-03T02:20:15.098Z,369
2023-01-03T02:21:19.718Z,363
2023-01-03T02:22:15.482Z,360
2023-01-03T02:23:15.726Z,357
2023-01-03T02:24:15.125Z,355
2023-01-03T02:25:14.359Z,361
2023-01-03T02:26:15.061Z,358
2023-01-03T02:27:15.296Z,361
2023-01-03T02:28:15.812Z,357
2023-01-03T02:29:15.326Z,356
2023-01-03T02:30:15.933Z,360
2023-01-03T02:31:15.316Z,356
2023-01-03T02:32:15.618Z,358
2023-01-03T02:33:14.604Z,363
2023-01-03T02:34:15.243Z,369
2023-01-03T02:35:15.852Z,360
2023-01-03T02:36:14.899Z,358
2023-01-03T02:37:14.659Z,356
2023-01-03T02:38:15.755Z,359
2023-01-03T02:39:19.193Z,356
2023-01-03T02:40:15.590Z,361
2023-01-03T02:41:15.627Z,367
2023-01-03T02:42:15.824Z,361
2023-01-03T02:43:15.225Z,360
2023-01-03T02:44:15.162Z,368
2023-01-03T02:46:14.898Z,357
2023-01-03T02:47:15.352Z,363
2023-01-03T02:48:15.707Z,375
2023-01-03T02:49:15.246Z,365
2023-01-03T02:50:15.580Z,355
2023-01-03T02:51:15.701Z,349
2023-01-03T02:52:15.162Z,364
2023-01-03T02:53:15.322Z,354
2023-01-03T02:54:15.318Z,370
2023-01-03T02:55:15.842Z,363
2023-01-03T02:57:14.976Z,362
2023-01-03T02:58:15.087Z,366
2023-01-03T02:59:15.323Z,365
2023-01-03T03:00:16.208Z,364
2023-01-03T03:01:16.022Z,361
2023-01-03T03:02:15.695Z,362
2023-01-03T03:03:15.985Z,370
2023-01-03T03:04:15.697Z,368
2023-01-03T03:05:20.689Z,365
2023-01-03T03:06:15.901Z,363
2023-01-03T03:08:15.235Z,372
2023-01-03T03:09:15.567Z,381
2023-01-03T03:11:15.708Z,373
2023-01-03T03:12:15.488Z,377
2023-01-03T03:13:15.087Z,372
2023-01-03T03:14:15.220Z,369
2023-01-03T03:15:16.140Z,368
2023-01-03T03:16:15.516Z,367
2023-01-03T03:17:15.998Z,368
2023-01-03T03:18:15.534Z,370
2023-01-03T03:20:15.336Z,373
2023-01-03T03:21:15.264Z,384
2023-01-03T03:22:15.159Z,381
2023-01-03T03:23:15.233Z,374
2023-01-03T03:24:15.079Z,378
2023-01-03T03:25:15.690Z,377
2023-01-03T03:26:15.908Z,369
2023-01-03T03:27:15.333Z,367
2023-01-03T03:28:15.437Z,373
2023-01-03T03:29:15.475Z,371
2023-01-03T03:30:15.565Z,370
2023-01-03T03:31:14.882Z,368
2023-01-03T03:32:15.289Z,375
2023-01-03T03:33:15.839Z,370
2023-01-03T03:34:14.703Z,373
2023-01-03T03:35:15.661Z,372
2023-01-03T03:37:15.391Z,380
2023-01-03T03:38:15.550Z,383
2023-01-03T03:39:15.546Z,373
2023-01-03T03:40:15.849Z,380
2023-01-03T03:42:15.008Z,379
2023-01-03T03:43:15.462Z,373
2023-01-03T03:45:16.010Z,377
2023-01-03T03:46:15.596Z,369
2023-01-03T03:47:15.319Z,370
2023-01-03T03:48:15.674Z,377
2023-01-03T03:49:15.591Z,381
2023-01-03T03:50:16.139Z,384
2023-01-03T03:51:15.760Z,382
2023-01-03T03:52:15.124Z,379
2023-01-03T03:53:15.493Z,376
2023-01-03T03:54:15.678Z,372
2023-01-03T03:55:15.885Z,375
2023-01-03T03:56:15.853Z,384
2023-01-03T03:57:15.294Z,395
2023-01-03T03:58:15.236Z,389
2023-01-03T03:59:15.916Z,372
2023-01-03T04:00:16.088Z,368
2023-01-03T04:01:14.829Z,383
2023-01-03T04:02:15.327Z,384
2023-01-03T04:03:16.260Z,376
2023-01-03T04:05:16.286Z,384
2023-01-03T04:06:15.629Z,383
2023-01-03T04:07:16.082Z,370
2023-01-03T04:08:15.825Z,369
2023-01-03T04:09:15.584Z,364
2023-01-03T04:10:15.824Z,360
2023-01-03T04:11:15.351Z,367
2023-01-03T04:12:15.760Z,377
2023-01-03T04:13:16.261Z,378
2023-01-03T04:14:15.291Z,380
2023-01-03T04:15:16.082Z,373
2023-01-03T04:16:14.913Z,372
2023-01-03T04:17:15.232Z,373
2023-01-03T04:18:15.490Z,366
2023-01-03T04:19:15.996Z,375
2023-01-03T04:20:15.341Z,374
2023-01-03T04:21:20.501Z,366
2023-01-03T04:22:15.173Z,362
2023-01-03T04:23:15.515Z,372
2023-01-03T04:24:15.233Z,370
2023-01-03T04:25:15.568Z,368
2023-01-03T04:26:14.979Z,366
2023-01-03T04:27:15.348Z,356
2023-01-03T04:28:15.454Z,367
2023-01-03T04:29:16.003Z,374
2023-01-03T04:30:15.351Z,366
2023-01-03T04:31:15.516Z,373
2023-01-03T04:32:15.628Z,375
2023-01-03T04:33:14.843Z,363
2023-01-03T04:34:15.223Z,368
2023-01-03T04:35:15.989Z,361
2023-01-03T04:36:15.965Z,352
2023-01-03T04:37:16.191Z,354
2023-01-03T04:38:15.715Z,359
2023-01-03T04:39:15.655Z,365
2023-01-03T04:40:16.347Z,359
2023-01-03T04:41:15.793Z,357
2023-01-03T04:42:15.206Z,366
2023-01-03T04:43:15.778Z,374
2023-01-03T04:44:14.797Z,359
2023-01-03T04:45:15.542Z,369
2023-01-03T04:46:15.741Z,366
2023-01-03T04:48:16.033Z,359
2023-01-03T04:49:15.460Z,362
2023-01-03T04:50:15.800Z,366
2023-01-03T04:51:15.270Z,368
2023-01-03T04:52:15.813Z,370
2023-01-03T04:53:15.289Z,379
2023-01-03T04:54:15.132Z,368
2023-01-03T04:55:16.068Z,360
2023-01-03T04:56:15.115Z,359
2023-01-03T04:57:15.865Z,368
2023-01-03T04:58:14.845Z,374
2023-01-03T04:59:14.963Z,371
2023-01-03T05:00:16.585Z,365
2023-01-03T05:01:16.030Z,357
2023-01-03T05:02:15.800Z,365
2023-01-03T05:03:15.522Z,368
2023-01-03T05:04:15.137Z,360
2023-01-03T05:05:16.376Z,362
2023-01-03T05:06:15.957Z,365
2023-01-03T05:07:15.806Z,364
2023-01-03T05:08:15.111Z,358
2023-01-03T05:09:16.099Z,352
2023-01-03T05:10:15.409Z,353
2023-01-03T05:11:14.832Z,355
2023-01-03T05:12:15.137Z,357
2023-01-03T05:13:15.406Z,349
2023-01-03T05:14:15.452Z,347
2023-01-03T05:16:15.363Z,355
2023-01-03T05:17:15.829Z,361
2023-01-03T05:18:15.754Z,351
2023-01-03T05:19:15.295Z,349
2023-01-03T05:20:15.815Z,350
2023-01-03T05:21:16.109Z,354
2023-01-03T05:22:15.572Z,357
2023-01-03T05:23:15.904Z,362
2023-01-03T05:24:15.099Z,364
2023-01-03T05:25:15.608Z,361
2023-01-03T05:26:15.484Z,363
2023-01-03T05:27:15.307Z,373
2023-01-03T05:28:17.790Z,381
2023-01-03T05:29:15.363Z,379
2023-01-03T05:30:15.671Z,370
2023-01-03T05:31:16.097Z,377
2023-01-03T05:32:15.841Z,369
2023-01-03T05:33:15.535Z,367
2023-01-03T05:34:15.810Z,378
2023-01-03T05:35:15.138Z,385
2023-01-03T05:36:16.598Z,380
2023-01-03T05:37:14.937Z,364
2023-01-03T05:38:15.119Z,357
2023-01-03T05:39:15.256Z,366
2023-01-03T05:40:15.333Z,372
2023-01-03T05:41:15.681Z,376
2023-01-03T05:42:15.713Z,369
2023-01-03T05:44:15.782Z,362
2023-01-03T05:45:15.017Z,354
2023-01-03T05:46:15.284Z,359
2023-01-03T05:47:15.781Z,357
2023-01-03T05:49:14.949Z,362
2023-01-03T05:50:15.269Z,364
2023-01-03T05:51:15.403Z,368
2023-01-03T05:52:15.712Z,365
2023-01-03T05:53:15.948Z,362
2023-01-03T05:54:15.869Z,360
2023-01-03T05:55:15.808Z,364
2023-01-03T05:56:14.944Z,363
2023-01-03T05:57:15.572Z,360
2023-01-03T05:58:15.676Z,364
2023-01-03T05:59:16.121Z,367
2023-01-03T06:00:16.557Z,362
2023-01-03T06:02:34.709Z,361
2023-01-03T06:03:15.735Z,369
2023-01-03T06:04:15.963Z,379
2023-01-03T06:05:15.716Z,378
2023-01-03T06:06:15.566Z,366
2023-01-03T06:07:15.967Z,369
2023-01-03T06:08:15.482Z,370
2023-01-03T06:09:15.948Z,367
2023-01-03T06:10:16.104Z,370
2023-01-03T06:11:15.462Z,362
2023-01-03T06:12:16.287Z,360
2023-01-03T06:13:16.191Z,369
2023-01-03T06:14:15.551Z,377
2023-01-03T06:16:18.924Z,379
2023-01-03T06:17:16.125Z,376
2023-01-03T06:18:15.705Z,382
2023-01-03T06:19:15.475Z,368
2023-01-03T06:20:16.294Z,366
2023-01-03T06:21:15.777Z,375
2023-01-03T06:22:15.546Z,374
2023-01-03T06:23:15.025Z,372
2023-01-03T06:24:15.934Z,384
2023-01-03T06:25:16.566Z,376
2023-01-03T06:26:15.963Z,367
2023-01-03T06:27:16.103Z,363
2023-01-03T06:28:15.644Z,366
2023-01-03T06:29:15.795Z,372
2023-01-03T06:30:15.832Z,386
2023-01-03T06:31:15.794Z,380
2023-01-03T06:32:15.583Z,376
2023-01-03T06:33:16.507Z,370
2023-01-03T06:34:15.336Z,386
2023-01-03T06:36:15.618Z,385
2023-01-03T06:37:16.100Z,364
2023-01-03T06:38:15.690Z,369
2023-01-03T06:39:15.553Z,374
2023-01-03T06:40:15.255Z,381
2023-01-03T06:41:15.670Z,384
2023-01-03T06:42:15.305Z,379
2023-01-03T06:43:16.091Z,378
2023-01-03T06:44:15.598Z,376
2023-01-03T06:45:16.234Z,383
2023-01-03T06:47:15.229Z,380
2023-01-03T06:48:15.954Z,378
2023-01-03T06:49:15.386Z,383
2023-01-03T06:50:16.018Z,388
2023-01-03T06:51:15.526Z,380
2023-01-03T06:52:15.737Z,374
2023-01-03T06:53:15.378Z,381
2023-01-03T06:54:15.828Z,385
2023-01-03T06:55:15.673Z,389
2023-01-03T06:56:15.143Z,388
2023-01-03T06:57:26.514Z,389
2023-01-03T06:58:15.957Z,385
2023-01-03T06:59:16.073Z,390
2023-01-03T07:00:16.579Z,381
2023-01-03T07:01:15.847Z,373
2023-01-03T07:02:15.371Z,388
2023-01-03T07:03:14.868Z,378
2023-01-03T07:04:15.691Z,368
2023-01-03T07:05:15.844Z,369
2023-01-03T07:06:15.432Z,377
2023-01-03T07:07:16.136Z,363
2023-01-03T07:08:15.648Z,358
2023-01-03T07:09:15.561Z,362
2023-01-03T07:10:15.139Z,367
2023-01-03T07:11:15.726Z,368
2023-01-03T07:12:15.583Z,371
2023-01-03T07:13:15.532Z,370
2023-01-03T07:14:15.893Z,373
2023-01-03T07:15:16.253Z,369
2023-01-03T07:16:16.124Z,359
2023-01-03T07:17:16.106Z,356
2023-01-03T07:18:15.530Z,347
2023-01-03T07:19:16.047Z,351
2023-01-03T07:20:15.557Z,366
2023-01-03T07:21:15.206Z,378
2023-01-03T07:22:15.530Z,375
2023-01-03T07:23:15.140Z,365
2023-01-03T07:24:14.905Z,361
2023-01-03T07:25:15.563Z,365
2023-01-03T07:26:15.888Z,374
2023-01-03T07:27:15.794Z,371
2023-01-03T07:28:15.783Z,372
2023-01-03T07:29:15.310Z,371
2023-01-03T07:30:16.125Z,366
2023-01-03T07:32:16.388Z,371
2023-01-03T07:33:14.976Z,366
2023-01-03T07:35:15.720Z,365
2023-01-03T07:36:16.278Z,363
2023-01-03T07:37:15.207Z,376
2023-01-03T07:38:15.546Z,382
2023-01-03T07:39:16.448Z,380
2023-01-03T07:40:16.391Z,382
2023-01-03T07:41:16.201Z,381
2023-01-03T07:42:16.248Z,382
2023-01-03T07:43:16.122Z,384
2023-01-03T07:44:15.892Z,386
2023-01-03T07:45:16.128Z,383
2023-01-03T07:46:16.086Z,380
2023-01-03T07:47:16.005Z,384
2023-01-03T07:48:16.136Z,382
2023-01-03T07:49:16.049Z,378
2023-01-03T07:50:16.025Z,376
2023-01-03T07:52:15.683Z,371
2023-01-03T07:53:15.490Z,379
2023-01-03T07:54:16.199Z,378
2023-01-03T07:55:16.264Z,372
2023-01-03T07:56:15.308Z,375
2023-01-03T07:57:20.969Z,372
2023-01-03T07:58:16.097Z,361
2023-01-03T08:00:16.576Z,380
2023-01-03T08:01:21.143Z,378
2023-01-03T08:02:15.454Z,374
2023-01-03T08:03:15.836Z,372
2023-01-03T08:04:15.763Z,365
2023-01-03T08:05:16.027Z,366
2023-01-03T08:06:16.321Z,373
2023-01-03T08:08:15.543Z,367
2023-01-03T08:09:15.294Z,368
2023-01-03T08:10:16.103Z,367
2023-01-03T08:11:16.456Z,374
2023-01-03T08:12:16.112Z,362
2023-01-03T08:13:15.787Z,378
2023-01-03T08:14:19.265Z,381
2023-01-03T08:15:15.957Z,374
2023-01-03T08:16:15.837Z,372
2023-01-03T08:17:15.663Z,374
2023-01-03T08:18:14.560Z,369
2023-01-03T08:19:14.323Z,373
2023-01-03T08:20:15.556Z,375
2023-01-03T08:21:15.433Z,362
2023-01-03T08:22:15.713Z,360
2023-01-03T08:23:15.532Z,357
2023-01-03T08:24:15.146Z,364
2023-01-03T08:25:15.940Z,367
2023-01-03T08:26:15.553Z,375
2023-01-03T08:27:16.599Z,379
2023-01-03T08:28:15.321Z,373
2023-01-03T08:29:16.746Z,372
2023-01-03T08:30:15.715Z,388
2023-01-03T08:31:16.162Z,370
2023-01-03T08:32:16.434Z,362
2023-01-03T08:33:15.404Z,369
2023-01-03T08:34:19.760Z,379
2023-01-03T08:35:16.165Z,386
2023-01-03T08:36:16.093Z,380
2023-01-03T08:37:15.599Z,370
2023-01-03T08:38:15.086Z,368
2023-01-03T08:39:16.802Z,365
2023-01-03T08:40:15.109Z,373
2023-01-03T08:41:15.110Z,374
2023-01-03T08:43:15.643Z,375
2023-01-03T08:44:15.002Z,364
2023-01-03T08:46:15.488Z,365
2023-01-03T08:47:16.340Z,367
2023-01-03T08:48:16.370Z,372
2023-01-03T08:49:15.878Z,364
2023-01-03T08:50:15.387Z,366
2023-01-03T08:51:15.322Z,368
2023-01-03T08:52:16.091Z,354
2023-01-03T08:53:15.103Z,355
2023-01-03T08:54:15.329Z,363
2023-01-03T08:56:14.426Z,354
2023-01-03T08:57:15.002Z,362
2023-01-03T08:58:15.717Z,365
2023-01-03T08:59:15.662Z,363
2023-01-03T09:00:16.127Z,367
2023-01-03T09:01:16.024Z,366
2023-01-03T09:02:16.546Z,358
2023-01-03T09:03:16.362Z,354
2023-01-03T09:04:15.887Z,358
2023-01-03T09:05:16.346Z,356
2023-01-03T09:06:16.291Z,360
2023-01-03T09:07:16.167Z,363
2023-01-03T09:08:15.871Z,364
2023-01-03T09:09:15.946Z,369
2023-01-03T09:10:15.666Z,360
2023-01-03T09:12:16.384Z,371
2023-01-03T09:14:16.119Z,365
2023-01-03T09:15:16.087Z,361
2023-01-03T09:16:15.878Z,376
2023-01-03T09:17:16.398Z,381
2023-01-03T09:18:15.126Z,362
2023-01-03T09:19:16.600Z,361
2023-01-03T09:20:15.079Z,363
2023-01-03T09:21:15.439Z,357
2023-01-03T09:22:15.076Z,361
2023-01-03T09:23:15.732Z,360
2023-01-03T09:24:15.220Z,364
2023-01-03T09:27:16.369Z,365
2023-01-03T09:28:15.299Z,371
2023-01-03T09:29:16.377Z,374
2023-01-03T09:30:16.941Z,362
2023-01-03T09:31:16.067Z,371
2023-01-03T09:32:15.461Z,358
2023-01-03T09:33:15.093Z,363
2023-01-03T09:34:15.543Z,355
2023-01-03T09:35:15.437Z,349
2023-01-03T09:36:15.137Z,352
2023-01-03T09:37:15.244Z,357
2023-01-03T09:38:15.386Z,361
2023-01-03T09:39:15.475Z,360
2023-01-03T09:40:15.799Z,361
2023-01-03T09:41:15.826Z,364
2023-01-03T09:42:15.556Z,356
2023-01-03T09:43:18.552Z,363
2023-01-03T09:44:15.197Z,354
2023-01-03T09:45:16.315Z,356
2023-01-03T09:46:15.948Z,349
2023-01-03T09:47:15.354Z,360
2023-01-03T09:48:16.407Z,361
2023-01-03T09:49:15.092Z,359
2023-01-03T09:50:34.632Z,361
2023-01-03T09:51:21.274Z,355
2023-01-03T09:52:15.234Z,352
2023-01-03T09:53:16.098Z,358
2023-01-03T09:54:15.443Z,368
2023-01-03T09:55:16.373Z,361
2023-01-03T09:56:15.928Z,368
2023-01-03T09:58:15.442Z,360
2023-01-03T09:59:16.040Z,354
2023-01-03T10:00:16.585Z,360
2023-01-03T10:01:16.030Z,373
2023-01-03T10:02:16.381Z,370
2023-01-03T10:03:15.838Z,367
2023-01-03T10:04:15.264Z,369
2023-01-03T10:05:15.450Z,366
2023-01-03T10:06:15.998Z,365
2023-01-03T10:07:16.253Z,359
2023-01-03T10:08:15.833Z,360
2023-01-03T10:09:16.082Z,366
2023-01-03T10:10:16.260Z,371
2023-01-03T10:11:16.123Z,366
2023-01-03T10:12:16.017Z,361
2023-01-03T10:13:20.045Z,366
2023-01-03T10:14:16.027Z,356
2023-01-03T10:15:16.554Z,340
2023-01-03T10:16:16.025Z,336
2023-01-03T10:17:15.940Z,345
2023-01-03T10:18:20.669Z,360
2023-01-03T10:19:15.151Z,363
2023-01-03T10:21:15.521Z,354
2023-01-03T10:22:16.070Z,357
2023-01-03T10:23:16.737Z,355
2023-01-03T10:25:15.368Z,359
2023-01-03T10:26:15.585Z,362
2023-01-03T10:27:16.103Z,365
2023-01-03T10:28:15.385Z,363
2023-01-03T10:29:15.931Z,360
2023-01-03T10:30:15.469Z,357
2023-01-03T10:31:16.286Z,359
2023-01-03T10:32:15.249Z,367
2023-01-03T10:33:15.552Z,356
2023-01-03T10:34:16.010Z,357
2023-01-03T10:35:15.746Z,352
2023-01-03T10:36:14.928Z,354
2023-01-03T10:37:15.506Z,349
2023-01-03T10:38:15.929Z,352
2023-01-03T10:39:15.764Z,351
2023-01-03T10:40:15.719Z,357
2023-01-03T10:41:15.496Z,360
2023-01-03T10:42:15.394Z,351
2023-01-03T10:43:15.170Z,359
2023-01-03T10:44:16.223Z,358
2023-01-03T10:45:16.362Z,352
2023-01-03T10:46:15.298Z,349
2023-01-03T10:48:15.852Z,350
2023-01-03T10:49:29.119Z,341
2023-01-03T10:50:16.137Z,346
2023-01-03T10:51:16.002Z,352
2023-01-03T10:52:15.960Z,351
2023-01-03T10:53:15.613Z,346
2023-01-03T10:54:16.396Z,353
2023-01-03T10:55:15.210Z,352
2023-01-03T10:56:15.558Z,350
2023-01-03T10:57:16.279Z,363
2023-01-03T10:58:15.742Z,361
2023-01-03T10:59:15.370Z,363
2023-01-03T11:00:16.868Z,352
2023-01-03T11:01:15.298Z,351
2023-01-03T11:02:15.701Z,361
2023-01-03T11:03:16.892Z,362
2023-01-03T11:04:15.878Z,355
2023-01-03T11:05:15.643Z,351
2023-01-03T11:06:15.346Z,361
2023-01-03T11:07:15.521Z,356
2023-01-03T11:08:14.850Z,358
2023-01-03T11:09:15.452Z,357
2023-01-03T11:10:16.126Z,346
2023-01-03T11:11:15.895Z,353
2023-01-03T11:12:15.097Z,347
2023-01-03T11:13:15.373Z,344
2023-01-03T11:14:16.339Z,352
2023-01-03T11:15:16.304Z,350
2023-01-03T11:16:15.436Z,344
2023-01-03T11:17:14.927Z,350
2023-01-03T11:18:15.201Z,360
2023-01-03T11:19:15.616Z,357
2023-01-03T11:20:15.303Z,349
2023-01-03T11:21:15.986Z,345
2023-01-03T11:22:15.357Z,349
2023-01-03T11:23:16.206Z,347
2023-01-03T11:24:15.981Z,344
2023-01-03T11:25:15.586Z,347
2023-01-03T11:26:15.744Z,355
2023-01-03T11:27:15.280Z,343
2023-01-03T11:28:16.542Z,344
2023-01-03T11:29:16.368Z,357
2023-01-03T11:30:16.370Z,355
2023-01-03T11:31:15.232Z,351
2023-01-03T11:32:16.050Z,350
2023-01-03T11:33:15.736Z,349
2023-01-03T11:35:24.686Z,355
2023-01-03T11:36:15.861Z,358
2023-01-03T11:37:15.396Z,355
2023-01-03T11:38:15.518Z,365
2023-01-03T11:39:19.071Z,354
2023-01-03T11:40:15.859Z,346
2023-01-03T11:41:15.678Z,355
2023-01-03T11:42:15.189Z,364
2023-01-03T11:43:15.883Z,354
2023-01-03T11:44:15.635Z,356
2023-01-03T11:45:15.661Z,351
2023-01-03T11:46:15.155Z,347
2023-01-03T11:47:15.518Z,350
2023-01-03T11:48:16.037Z,352
2023-01-03T11:49:15.458Z,362
2023-01-03T11:50:15.424Z,359
2023-01-03T11:51:16.298Z,351
2023-01-03T11:52:16.013Z,352
2023-01-03T11:53:16.026Z,349
2023-01-03T11:54:15.772Z,347
2023-01-03T11:55:15.482Z,346
2023-01-03T11:56:15.700Z,345
2023-01-03T11:57:15.833Z,352
2023-01-03T11:59:15.288Z,351
2023-01-03T12:00:16.997Z,343
2023-01-03T12:01:16.098Z,353
2023-01-03T12:02:16.297Z,361
2023-01-03T12:03:15.698Z,362
2023-01-03T12:04:15.571Z,359
2023-01-03T12:05:15.243Z,361
2023-01-03T12:06:15.945Z,354
2023-01-03T12:08:16.119Z,360
2023-01-03T12:09:16.452Z,352
2023-01-03T12:10:16.168Z,347
2023-01-03T12:11:15.989Z,344
2023-01-03T12:12:15.669Z,349
2023-01-03T12:13:15.507Z,335
2023-01-03T12:14:15.664Z,348
2023-01-03T12:15:15.605Z,347
2023-01-03T12:17:15.391Z,348
2023-01-03T12:18:15.778Z,349
2023-01-03T12:19:15.878Z,359
2023-01-03T12:20:15.635Z,356
2023-01-03T12:21:15.802Z,350
2023-01-03T12:22:15.831Z,362
2023-01-03T12:23:15.354Z,351
2023-01-03T12:24:15.480Z,354
2023-01-03T12:25:15.626Z,352
2023-01-03T12:27:15.721Z,358
2023-01-03T12:28:15.553Z,357
2023-01-03T12:29:15.815Z,362
2023-01-03T12:30:15.618Z,357
2023-01-03T12:31:16.152Z,347
2023-01-03T12:32:15.378Z,341
2023-01-03T12:33:15.272Z,344
2023-01-03T12:34:15.430Z,353
2023-01-03T12:35:15.286Z,352
2023-01-03T12:36:15.272Z,358
2023-01-03T12:37:15.578Z,353
2023-01-03T12:38:15.561Z,350
2023-01-03T12:39:16.194Z,349
2023-01-03T12:40:15.570Z,358
2023-01-03T12:41:16.536Z,356
2023-01-03T12:42:16.284Z,360
2023-01-03T12:44:15.975Z,356
2023-01-03T12:45:16.247Z,355
2023-01-03T12:46:15.333Z,367
2023-01-03T12:47:15.747Z,362
2023-01-03T12:48:15.282Z,364
2023-01-03T12:49:15.219Z,366
2023-01-03T12:50:15.802Z,359
2023-01-03T12:51:20.854Z,352
2023-01-03T12:52:17.240Z,360
2023-01-03T12:53:16.123Z,348
2023-01-03T12:54:15.865Z,350
2023-01-03T12:55:16.101Z,353
2023-01-03T12:56:15.655Z,356
2023-01-03T12:57:15.565Z,368
2023-01-03T12:58:15.947Z,362
2023-01-03T12:59:15.774Z,358
2023-01-03T13:01:16.814Z,369
2023-01-03T13:02:16.181Z,358
2023-01-03T13:03:15.679Z,357
2023-01-03T13:04:20.965Z,351
2023-01-03T13:05:16.539Z,358
2023-01-03T13:06:16.132Z,357
2023-01-03T13:07:16.050Z,350
2023-01-03T13:08:15.458Z,356
2023-01-03T13:09:16.085Z,355
2023-01-03T13:10:16.191Z,353
2023-01-03T13:11:15.964Z,358
2023-01-03T13:12:15.908Z,352
2023-01-03T13:13:30.193Z,356
2023-01-03T13:14:16.367Z,357
2023-01-03T13:15:16.279Z,359
2023-01-03T13:17:16.118Z,358
2023-01-03T13:18:16.428Z,349
2023-01-03T13:19:15.427Z,348
2023-01-03T13:20:15.793Z,350
2023-01-03T13:21:15.748Z,362
2023-01-03T13:22:15.821Z,359
2023-01-03T13:23:16.094Z,357
2023-01-03T13:24:15.692Z,354
2023-01-03T13:25:16.138Z,343
2023-01-03T13:26:15.640Z,348
2023-01-03T13:27:34.620Z,356
2023-01-03T13:28:15.739Z,353
2023-01-03T13:29:15.848Z,347
2023-01-03T13:30:15.969Z,350
2023-01-03T13:31:16.094Z,352
2023-01-03T13:32:15.281Z,359
2023-01-03T13:33:16.863Z,346
2023-01-03T13:34:16.131Z,354
2023-01-03T13:35:16.664Z,352
2023-01-03T13:36:15.508Z,360
2023-01-03T13:37:15.711Z,359
2023-01-03T13:38:20.913Z,353
2023-01-03T13:39:16.209Z,347
2023-01-03T13:40:15.472Z,358
2023-01-03T13:41:18.134Z,354
2023-01-03T13:42:15.797Z,358
2023-01-03T13:43:16.541Z,348
2023-01-03T13:44:16.070Z,351
2023-01-03T13:45:16.837Z,348
2023-01-03T13:46:16.087Z,347
2023-01-03T13:47:16.534Z,356
2023-01-03T13:49:16.766Z,364
2023-01-03T13:50:15.796Z,354
2023-01-03T13:52:15.814Z,352
2023-01-03T13:53:15.853Z,349
2023-01-03T13:54:15.783Z,346
2023-01-03T13:55:15.657Z,347
2023-01-03T13:56:15.213Z,348
2023-01-03T13:57:15.520Z,343
2023-01-03T13:58:15.979Z,339
2023-01-03T13:59:15.989Z,347
2023-01-03T14:00:17.052Z,350
2023-01-03T14:01:16.260Z,345
2023-01-03T14:02:16.522Z,347
2023-01-03T14:03:16.526Z,348
2023-01-03T14:04:15.643Z,350
2023-01-03T14:06:16.222Z,346
2023-01-03T14:07:16.237Z,349
2023-01-03T14:08:15.764Z,356
2023-01-03T14:09:15.487Z,357
2023-01-03T14:10:15.259Z,355
2023-01-03T14:11:16.420Z,349
2023-01-03T14:12:16.656Z,345
2023-01-03T14:13:15.602Z,349
2023-01-03T14:14:15.060Z,358
2023-01-03T14:15:25.543Z,354
2023-01-03T14:16:14.943Z,346
2023-01-03T14:17:15.234Z,356
2023-01-03T14:19:15.049Z,355
2023-01-03T14:20:16.177Z,354
2023-01-03T14:21:21.747Z,362
2023-01-03T14:22:28.616Z,364
2023-01-03T14:23:57.882Z,363
2023-01-03T14:24:21.159Z,362
2023-01-03T14:25:16.267Z,362
2023-01-03T14:26:16.009Z,361
2023-01-03T14:27:17.525Z,353
2023-01-03T14:28:15.256Z,355
2023-01-03T14:29:16.227Z,356
2023-01-03T14:30:16.031Z,358
2023-01-03T14:31:15.802Z,362
2023-01-03T14:32:16.078Z,357
2023-01-03T14:33:15.837Z,359
2023-01-03T14:34:15.557Z,349
2023-01-03T14:35:15.823Z,348
2023-01-03T14:36:15.265Z,350
2023-01-03T14:37:16.369Z,359
2023-01-03T14:38:15.587Z,356
2023-01-03T14:39:15.440Z,348
2023-01-03T14:40:16.219Z,339
2023-01-03T14:41:16.341Z,351
2023-01-03T14:42:16.272Z,359